createdAt,value
2019-03-22T00:00:04.180Z,12.40
2019-03-22T00:04:14.196Z,13.47
2019-03-22T00:08:22.998Z,13.80
2019-03-22T00:12:31.606Z,9.57
2019-03-22T00:16:39.849Z,9.40
2019-03-22T00:20:49.487Z,8.77
2019-03-22T00:24:58.339Z,9.47
2019-03-22T00:29:06.560Z,9.17
2019-03-22T00:33:15.749Z,9.77
2019-03-22T00:37:23.916Z,8.33
2019-03-22T00:41:32.339Z,8.47
2019-03-22T00:45:40.754Z,8.53
2019-03-22T00:49:48.986Z,8.40
2019-03-22T00:53:57.703Z,8.00
2019-03-22T00:58:06.259Z,7.77
2019-03-22T01:02:14.759Z,8.13
2019-03-22T01:06:23.688Z,8.40
2019-03-22T01:10:32.941Z,9.07
2019-03-22T01:14:41.775Z,9.27
2019-03-22T01:18:50.938Z,10.07
2019-03-22T01:22:59.662Z,9.60
2019-03-22T01:27:07.968Z,10.27
2019-03-22T01:31:16.924Z,10.80
2019-03-22T01:35:25.340Z,9.83
2019-03-22T01:39:33.648Z,10.40
2019-03-22T01:43:42.813Z,11.83
2019-03-22T01:47:51.024Z,12.43
2019-03-22T01:51:59.838Z,12.60
2019-03-22T01:56:08.594Z,12.57
2019-03-22T02:00:17.773Z,11.67
2019-03-22T02:04:26.555Z,12.67
2019-03-22T02:08:35.079Z,12.87
2019-03-22T02:12:43.400Z,12.70
2019-03-22T02:16:51.841Z,12.47
2019-03-22T02:21:00.781Z,13.57
2019-03-22T02:25:09.610Z,13.43
2019-03-22T02:29:18.330Z,13.30
2019-03-22T02:33:27.529Z,13.77
2019-03-22T02:37:35.892Z,14.27
2019-03-22T02:41:45.157Z,13.03
2019-03-22T02:45:53.272Z,14.00
2019-03-22T02:50:11.691Z,14.63
2019-03-22T02:54:12.069Z,13.83
2019-03-22T02:58:21.443Z,13.67
2019-03-22T03:02:30.850Z,15.70
2019-03-22T03:06:39.722Z,15.07
2019-03-22T03:10:47.998Z,14.87
2019-03-22T03:14:56.642Z,14.83
2019-03-22T03:19:05.263Z,15.97
2019-03-22T03:23:13.592Z,15.93
2019-03-22T03:27:22.465Z,15.80
2019-03-22T03:31:31.172Z,16.97
2019-03-22T03:35:39.594Z,16.10
2019-03-22T03:39:48.366Z,15.87
2019-03-22T03:43:57.341Z,16.30
2019-03-22T03:48:07.597Z,16.43
2019-03-22T03:52:16.140Z,16.80
2019-03-22T03:56:24.383Z,16.83
2019-03-22T04:00:33.407Z,15.30
2019-03-22T04:04:41.542Z,16.53
2019-03-22T04:08:49.764Z,17.10
2019-03-22T04:12:58.870Z,17.37
2019-03-22T04:17:07.414Z,17.13
2019-03-22T04:21:15.733Z,17.80
2019-03-22T04:25:24.510Z,17.17
2019-03-22T04:29:32.680Z,17.43
2019-03-22T04:33:41.108Z,17.40
2019-03-22T04:37:49.942Z,17.40
2019-03-22T04:41:58.167Z,15.87
2019-03-22T04:46:07.993Z,17.43
2019-03-22T04:50:17.348Z,17.03
2019-03-22T04:54:27.980Z,16.30
2019-03-22T04:58:38.324Z,17.33
2019-03-22T05:02:48.564Z,16.57
2019-03-22T05:06:58.521Z,16.90
2019-03-22T05:11:09.639Z,17.60
2019-03-22T05:15:20.198Z,17.43
2019-03-22T05:19:31.497Z,18.17
2019-03-22T05:23:41.041Z,17.50
2019-03-22T05:27:51.377Z,18.13
2019-03-22T05:32:06.112Z,17.07
2019-03-22T05:36:14.310Z,16.63
2019-03-22T05:40:22.635Z,16.40
2019-03-22T05:44:31.360Z,16.23
2019-03-22T05:48:39.781Z,16.87
2019-03-22T05:52:48.626Z,16.23
2019-03-22T05:56:56.942Z,16.67
2019-03-22T06:01:06.087Z,16.13
2019-03-22T06:05:14.900Z,16.20
2019-03-22T06:09:23.147Z,15.83
2019-03-22T06:13:32.072Z,17.40
2019-03-22T06:17:51.150Z,18.53
2019-03-22T06:21:51.275Z,17.83
2019-03-22T06:26:00.111Z,17.03
2019-03-22T06:30:10.899Z,17.23
2019-03-22T06:34:19.306Z,16.83
2019-03-22T06:38:28.166Z,16.13
2019-03-22T06:42:36.766Z,16.43
2019-03-22T06:46:45.203Z,17.00
2019-03-22T06:50:53.526Z,17.47
2019-03-22T06:55:03.073Z,17.27
2019-03-22T06:59:11.809Z,16.37
2019-03-22T07:03:20.618Z,16.67
2019-03-22T07:07:28.934Z,16.47
2019-03-22T07:11:37.479Z,15.47
2019-03-22T07:15:47.054Z,14.70
2019-03-22T07:19:55.361Z,14.97
2019-03-22T07:24:04.408Z,15.13
2019-03-22T07:28:13.237Z,14.27
2019-03-22T07:32:21.562Z,13.90
2019-03-22T07:36:30.510Z,14.17
2019-03-22T07:40:38.718Z,13.20
2019-03-22T07:44:47.032Z,12.73
2019-03-22T07:48:56.184Z,13.87
2019-03-22T07:53:04.491Z,11.20
2019-03-22T07:57:13.528Z,13.43
2019-03-22T08:01:22.374Z,12.13
2019-03-22T08:05:31.107Z,11.33
2019-03-22T08:09:39.814Z,12.33
2019-03-22T08:13:48.458Z,10.80
2019-03-22T08:17:57.244Z,11.27
2019-03-22T08:22:06.123Z,10.23
2019-03-22T08:26:14.894Z,9.20
2019-03-22T08:30:23.192Z,9.77
2019-03-22T08:34:31.758Z,9.83
2019-03-22T08:38:40.154Z,10.17
2019-03-22T08:42:48.673Z,10.63
2019-03-22T08:46:57.539Z,13.00
2019-03-22T08:51:05.923Z,10.97
2019-03-22T08:55:14.535Z,9.13
2019-03-22T08:59:22.772Z,9.13
2019-03-22T09:03:31.112Z,9.67
2019-03-22T09:07:39.998Z,9.43
2019-03-22T09:11:48.752Z,9.17
2019-03-22T09:15:56.983Z,6.80
2019-03-22T09:20:06.317Z,8.53
2019-03-22T09:24:15.046Z,7.63
2019-03-22T09:28:23.298Z,6.00
2019-03-22T09:32:31.708Z,8.10
2019-03-22T09:36:40.167Z,7.67
2019-03-22T09:40:48.395Z,7.43
2019-03-22T09:44:56.972Z,7.33
2019-03-22T09:49:05.204Z,5.80
2019-03-22T09:53:13.714Z,5.97
2019-03-22T09:57:22.489Z,7.40
2019-03-22T10:01:30.682Z,7.57
2019-03-22T10:05:39.413Z,5.93
2019-03-22T10:09:47.650Z,6.60
2019-03-22T10:13:56.561Z,6.30
2019-03-22T10:18:05.828Z,7.10
2019-03-22T10:22:13.942Z,6.83
2019-03-22T10:26:22.697Z,7.57
2019-03-22T10:30:31.518Z,6.20
2019-03-22T10:34:39.984Z,6.83
2019-03-22T10:38:50.411Z,6.70
2019-03-22T10:42:58.624Z,5.60
2019-03-22T10:47:06.831Z,8.07
2019-03-22T10:51:15.655Z,8.40
2019-03-22T10:55:30.348Z,7.50
2019-03-22T10:59:34.140Z,6.60
2019-03-22T11:03:42.931Z,7.33
2019-03-22T11:07:51.299Z,7.20
2019-03-22T11:12:00.120Z,7.70
2019-03-22T11:16:08.765Z,7.37
2019-03-22T11:20:17.370Z,6.37
2019-03-22T11:24:25.716Z,7.97
2019-03-22T11:28:34.950Z,6.23
2019-03-22T11:32:43.291Z,6.30
2019-03-22T11:36:51.937Z,6.07
2019-03-22T11:41:00.158Z,6.90
2019-03-22T11:45:11.099Z,6.87
2019-03-22T11:49:19.540Z,5.87
2019-03-22T11:53:27.755Z,5.60
2019-03-22T11:57:38.316Z,5.70
2019-03-22T12:01:46.950Z,6.00
2019-03-22T12:05:55.280Z,5.60
2019-03-22T12:10:04.374Z,5.20
2019-03-22T12:14:12.855Z,4.77
2019-03-22T12:18:21.168Z,4.80
2019-03-22T12:22:29.896Z,4.77
2019-03-22T12:26:38.427Z,5.10
2019-03-22T12:30:46.642Z,4.70
2019-03-22T12:34:55.173Z,6.17
2019-03-22T12:39:04.183Z,5.10
2019-03-22T12:43:12.949Z,4.63
2019-03-22T12:47:22.081Z,5.63
2019-03-22T12:51:30.401Z,5.17
2019-03-22T12:55:38.829Z,5.23
2019-03-22T12:59:47.354Z,4.97
2019-03-22T13:03:55.576Z,5.83
2019-03-22T13:08:04.601Z,6.90
2019-03-22T13:12:13.441Z,5.10
2019-03-22T13:16:21.779Z,4.87
2019-03-22T13:20:30.692Z,4.97
2019-03-22T13:24:38.920Z,6.80
2019-03-22T13:28:47.865Z,7.00
2019-03-22T13:32:56.791Z,5.40
2019-03-22T13:37:05.020Z,5.57
2019-03-22T13:41:13.552Z,7.27
2019-03-22T13:45:22.378Z,5.23
2019-03-22T13:49:30.699Z,6.00
2019-03-22T13:53:39.345Z,7.70
2019-03-22T13:57:47.549Z,6.03
2019-03-22T14:01:56.403Z,5.87
2019-03-22T14:06:05.733Z,5.90
2019-03-22T14:10:22.232Z,8.47
2019-03-22T14:14:31.083Z,8.60
2019-03-22T14:18:39.817Z,9.63
2019-03-22T14:22:48.237Z,9.50
2019-03-22T14:26:56.673Z,22.20
2019-03-22T14:31:05.997Z,10.10
2019-03-22T14:35:14.329Z,9.60
2019-03-22T14:39:22.771Z,13.07
2019-03-22T14:43:31.601Z,11.07
2019-03-22T14:47:39.712Z,10.70
2019-03-22T14:51:48.446Z,12.50
2019-03-22T14:55:57.071Z,13.13
2019-03-22T15:00:05.705Z,10.73
2019-03-22T15:04:14.634Z,10.20
2019-03-22T15:08:23.138Z,9.67
2019-03-22T15:12:31.700Z,9.77
2019-03-22T15:17:17.529Z,11.60
2019-03-22T15:21:44.772Z,11.47
2019-03-22T15:26:11.224Z,11.20
2019-03-22T15:30:56.604Z,10.80
2019-03-22T15:35:42.438Z,20.27
2019-03-22T15:40:03.916Z,11.50
2019-03-22T15:44:12.521Z,16.37
2019-03-22T15:48:21.393Z,10.87
2019-03-22T15:52:30.113Z,12.93
2019-03-22T15:56:38.421Z,11.77
2019-03-22T16:00:47.173Z,12.17
2019-03-22T16:04:55.401Z,12.23
2019-03-22T16:09:05.173Z,11.67
2019-03-22T16:13:13.680Z,15.67
2019-03-22T16:17:21.895Z,12.77
2019-03-22T16:21:30.835Z,11.97
2019-03-22T16:25:39.666Z,10.20
2019-03-22T16:29:47.879Z,14.43
2019-03-22T16:33:57.105Z,11.67
2019-03-22T16:38:05.639Z,10.53
2019-03-22T16:42:13.990Z,12.87
2019-03-22T16:46:22.920Z,50.93
2019-03-22T16:50:31.843Z,49.07
2019-03-22T16:54:40.703Z,18.23
2019-03-22T16:58:49.718Z,24.67
2019-03-22T17:02:57.950Z,24.80
2019-03-22T17:07:07.195Z,19.10
2019-03-22T17:11:15.421Z,20.40
2019-03-22T17:15:24.155Z,20.93
2019-03-22T17:19:32.726Z,20.97
2019-03-22T17:23:40.888Z,23.00
2019-03-22T17:27:49.735Z,23.03
2019-03-22T17:31:58.651Z,14.80
2019-03-22T17:36:07.068Z,10.90
2019-03-22T17:40:15.813Z,12.93
2019-03-22T17:44:24.365Z,14.97
2019-03-22T17:48:32.471Z,39.10
2019-03-22T17:52:41.076Z,37.03
2019-03-22T17:56:49.437Z,21.40
2019-03-22T18:00:58.415Z,14.83
2019-03-22T18:05:08.394Z,11.93
2019-03-22T18:09:16.625Z,12.83
2019-03-22T18:13:25.581Z,12.27
2019-03-22T18:17:34.096Z,10.27
2019-03-22T18:21:42.337Z,9.40
2019-03-22T18:25:51.067Z,10.70
2019-03-22T18:29:59.368Z,15.57
2019-03-22T18:34:08.538Z,11.63
2019-03-22T18:38:17.324Z,9.53
2019-03-22T18:42:25.576Z,13.37
2019-03-22T18:46:34.290Z,11.63
2019-03-22T18:50:43.132Z,12.80
2019-03-22T18:54:51.956Z,14.67
2019-03-22T18:59:00.397Z,11.60
2019-03-22T19:03:08.623Z,12.17
2019-03-22T19:07:17.232Z,24.23
2019-03-22T19:11:25.947Z,14.87
2019-03-22T19:15:34.303Z,15.23
2019-03-22T19:19:42.714Z,17.77
2019-03-22T19:23:50.934Z,18.47
2019-03-22T19:27:59.559Z,13.57
2019-03-22T19:32:13.423Z,13.37
2019-03-22T19:36:18.053Z,12.03
2019-03-22T19:40:26.636Z,13.97
2019-03-22T19:44:35.413Z,14.80
2019-03-22T19:48:43.732Z,14.63
2019-03-22T19:52:52.261Z,16.77
2019-03-22T19:57:01.165Z,17.30
2019-03-22T20:01:09.615Z,19.33
2019-03-22T20:05:32.135Z,20.73
2019-03-22T20:09:40.553Z,19.30
2019-03-22T20:13:48.787Z,17.47
2019-03-22T20:17:57.330Z,16.13
2019-03-22T20:22:06.084Z,15.23
2019-03-22T20:26:14.406Z,13.83
2019-03-22T20:30:23.541Z,13.50
2019-03-22T20:34:31.837Z,13.17
2019-03-22T20:38:41.103Z,11.67
2019-03-22T20:42:50.064Z,12.90
2019-03-22T20:46:58.264Z,12.40
2019-03-22T20:51:06.992Z,11.70
2019-03-22T20:55:17.209Z,12.07
2019-03-22T20:59:25.373Z,11.73
2019-03-22T21:03:34.093Z,13.73
2019-03-22T21:07:42.421Z,11.47
2019-03-22T21:11:51.194Z,11.33
2019-03-22T21:15:59.698Z,11.07
2019-03-22T21:20:08.650Z,11.17
2019-03-22T21:24:17.654Z,11.47
2019-03-22T21:28:26.574Z,11.53
2019-03-22T21:32:44.740Z,12.27
2019-03-22T21:36:45.175Z,12.43
2019-03-22T21:40:53.925Z,12.93
2019-03-22T21:45:02.125Z,13.00
2019-03-22T21:49:11.064Z,14.10
2019-03-22T21:53:19.411Z,14.47
2019-03-22T21:57:27.835Z,14.60
2019-03-22T22:01:37.848Z,14.47
2019-03-22T22:05:48.090Z,15.73
2019-03-22T22:09:56.768Z,16.00
2019-03-22T22:14:05.594Z,15.77
2019-03-22T22:18:14.132Z,16.90
2019-03-22T22:22:22.555Z,16.27
2019-03-22T22:26:31.503Z,16.73
2019-03-22T22:30:39.711Z,17.73
2019-03-22T22:34:48.043Z,18.70
2019-03-22T22:38:56.881Z,18.57
2019-03-22T22:43:05.125Z,19.43
2019-03-22T22:47:13.710Z,18.73
2019-03-22T22:51:22.283Z,18.17
2019-03-22T22:55:30.457Z,18.60
2019-03-22T22:59:39.748Z,19.33
2019-03-22T23:03:47.820Z,19.50
2019-03-22T23:07:56.049Z,19.07
2019-03-22T23:12:04.767Z,17.27
2019-03-22T23:16:13.304Z,17.40
2019-03-22T23:20:22.178Z,17.93
2019-03-22T23:24:30.560Z,17.50
2019-03-22T23:28:38.996Z,17.87
2019-03-22T23:32:47.924Z,17.40
2019-03-22T23:36:56.752Z,17.43
2019-03-22T23:41:05.331Z,17.60
2019-03-22T23:45:14.632Z,18.23
2019-03-22T23:49:23.349Z,17.97
2019-03-22T23:53:31.761Z,17.53
2019-03-22T23:57:40.016Z,17.33
